Terminal Aerodrome Forecast
Issued by NWS

Home | Current Version | Previous Version | Text Only | Print | Product List | Glossary On
Versions: 1 2 3 4 5 6 7 8 9 10 11 12 13 14 15
156
FTUS46 KSEW 131124
TAFOLM
TAF
KOLM 131124Z 1312/1412 00000KT 2SM BR SKC
      TEMPO 1312/1316 1/2SM FZFG VV001
     FM131900 36006KT P6SM SKC
     FM140900 00000KT 1/2SM FG VV002=

USA.gov is the U.S. government's official web portal to all federal, state and local government web resources and services.